Terminal Aerodrome Forecast
Issued by NWS

Home | Current Version | Previous Version | Text Only | Print | Product List | Glossary Off
Versions: 1 2 3 4 5 6 7 8 9 10 11 12 13 14 15

000
FTUS43 KPAH 302047 AAB
TAFOWB
TAF AMD
KOWB 302047Z 3021/0118 17007KT P6SM VCSH FEW020 BKN110
     FM010300 16006KT P6SM VCTS BKN030CB
     FM010900 15003KT 6SM BR SCT012 BKN025
     FM011500 25004KT 6SM HZ BKN025=

USA.gov is the U.S. government's official web portal to all federal, state and local government web resources and services.